sensor_id;sensor_type;location;lat;lon;timestamp;pressure;altitude;pressure_sealevel;temperature;humidity
43147;BME280;28752;48.266;7.402;2023-12-14T00:01:33;98429.38;;;10.24;80.13
43147;BME280;28752;48.266;7.402;2023-12-14T00:03:58;98430.19;;;10.24;80.03
43147;BME280;28752;48.266;7.402;2023-12-14T00:06:24;98434.66;;;10.24;79.94
43147;BME280;28752;48.266;7.402;2023-12-14T00:08:49;98440.59;;;10.26;80.15
43147;BME280;28752;48.266;7.402;2023-12-14T00:11:42;98438.13;;;10.24;80.37
43147;BME280;28752;48.266;7.402;2023-12-14T00:14:28;98437.00;;;9.94;80.78
43147;BME280;28752;48.266;7.402;2023-12-14T00:17:31;98425.09;;;9.65;81.33
43147;BME280;28752;48.266;7.402;2023-12-14T00:20:17;98422.00;;;9.78;80.92
43147;BME280;28752;48.266;7.402;2023-12-14T00:22:47;98447.59;;;10.02;80.75
43147;BME280;28752;48.266;7.402;2023-12-14T00:25:17;98465.59;;;10.07;80.68
43147;BME280;28752;48.266;7.402;2023-12-14T00:27:42;98471.03;;;10.22;80.53
43147;BME280;28752;48.266;7.402;2023-12-14T00:30:08;98479.97;;;10.29;80.22
43147;BME280;28752;48.266;7.402;2023-12-14T00:32:36;98470.91;;;10.07;80.96
43147;BME280;28752;48.266;7.402;2023-12-14T00:35:02;98489.25;;;10.25;80.65
43147;BME280;28752;48.266;7.402;2023-12-14T00:37:27;98486.91;;;10.22;80.77
43147;BME280;28752;48.266;7.402;2023-12-14T00:39:52;98487.59;;;9.99;79.45
43147;BME280;28752;48.266;7.402;2023-12-14T00:42:19;98495.34;;;10.09;79.13
43147;BME280;28752;48.266;7.402;2023-12-14T00:44:45;98494.03;;;10.21;78.68
43147;BME280;28752;48.266;7.402;2023-12-14T00:47:10;98483.28;;;10.14;78.86
43147;BME280;28752;48.266;7.402;2023-12-14T00:49:35;98500.63;;;10.25;78.35
43147;BME280;28752;48.266;7.402;2023-12-14T00:52:01;98507.41;;;10.20;78.11
43147;BME280;28752;48.266;7.402;2023-12-14T00:54:27;98502.28;;;10.18;77.07
43147;BME280;28752;48.266;7.402;2023-12-14T00:56:52;98518.00;;;10.28;76.37
43147;BME280;28752;48.266;7.402;2023-12-14T00:59:18;98521.00;;;10.33;76.00
43147;BME280;28752;48.266;7.402;2023-12-14T01:01:43;98522.31;;;10.21;75.45
43147;BME280;28752;48.266;7.402;2023-12-14T01:04:08;98522.31;;;10.21;77.80
43147;BME280;28752;48.266;7.402;2023-12-14T01:06:34;98527.91;;;10.09;78.17
43147;BME280;28752;48.266;7.402;2023-12-14T01:08:59;98536.84;;;10.08;78.03
43147;BME280;28752;48.266;7.402;2023-12-14T01:11:24;98532.88;;;9.96;79.06
43147;BME280;28752;48.266;7.402;2023-12-14T01:13:50;98545.28;;;10.04;78.84
43147;BME280;28752;48.266;7.402;2023-12-14T01:16:15;98550.06;;;10.00;78.63
43147;BME280;28752;48.266;7.402;2023-12-14T01:18:40;98548.06;;;9.86;78.91
43147;BME280;28752;48.266;7.402;2023-12-14T01:21:06;98545.25;;;9.87;78.98
43147;BME280;28752;48.266;7.402;2023-12-14T01:23:50;98544.44;;;9.95;78.59
43147;BME280;28752;48.266;7.402;2023-12-14T01:26:16;98557.63;;;9.87;77.77
43147;BME280;28752;48.266;7.402;2023-12-14T01:28:43;98555.31;;;9.84;77.43
43147;BME280;28752;48.266;7.402;2023-12-14T01:31:08;98556.97;;;9.76;77.42
43147;BME280;28752;48.266;7.402;2023-12-14T01:33:34;98563.06;;;9.77;77.19
43147;BME280;28752;48.266;7.402;2023-12-14T01:35:59;98562.59;;;9.82;76.64
43147;BME280;28752;48.266;7.402;2023-12-14T01:38:24;98567.22;;;9.80;76.34
43147;BME280;28752;48.266;7.402;2023-12-14T01:40:50;98576.47;;;9.84;75.99
43147;BME280;28752;48.266;7.402;2023-12-14T01:43:15;98574.84;;;9.91;75.59
43147;BME280;28752;48.266;7.402;2023-12-14T01:45:41;98579.16;;;10.00;74.86
43147;BME280;28752;48.266;7.402;2023-12-14T01:48:06;98572.03;;;9.84;75.98
43147;BME280;28752;48.266;7.402;2023-12-14T01:50:31;98579.09;;;9.84;75.81
43147;BME280;28752;48.266;7.402;2023-12-14T01:52:57;98590.69;;;9.91;76.26
43147;BME280;28752;48.266;7.402;2023-12-14T01:55:22;98600.13;;;10.02;75.66
43147;BME280;28752;48.266;7.402;2023-12-14T01:57:48;98599.94;;;9.87;76.22
43147;BME280;28752;48.266;7.402;2023-12-14T02:00:21;98599.31;;;9.93;75.96
43147;BME280;28752;48.266;7.402;2023-12-14T02:02:48;98607.25;;;9.93;76.41
43147;BME280;28752;48.266;7.402;2023-12-14T02:05:13;98609.75;;;10.03;76.20
43147;BME280;28752;48.266;7.402;2023-12-14T02:07:39;98616.66;;;9.95;76.34
43147;BME280;28752;48.266;7.402;2023-12-14T02:10:05;98602.25;;;9.90;76.68
43147;BME280;28752;48.266;7.402;2023-12-14T02:12:30;98621.94;;;9.87;77.43
43147;BME280;28752;48.266;7.402;2023-12-14T02:14:59;98623.44;;;9.98;76.87
43147;BME280;28752;48.266;7.402;2023-12-14T02:17:24;98626.75;;;10.00;76.98
43147;BME280;28752;48.266;7.402;2023-12-14T02:19:50;98623.94;;;9.93;77.66
43147;BME280;28752;48.266;7.402;2023-12-14T02:22:16;98623.25;;;9.83;78.42
43147;BME280;28752;48.266;7.402;2023-12-14T02:24:42;98635.00;;;9.97;78.28
43147;BME280;28752;48.266;7.402;2023-12-14T02:27:07;98628.94;;;10.13;77.98
43147;BME280;28752;48.266;7.402;2023-12-14T02:29:33;98635.22;;;10.12;78.35
43147;BME280;28752;48.266;7.402;2023-12-14T02:31:58;98641.00;;;10.16;78.22
43147;BME280;28752;48.266;7.402;2023-12-14T02:34:23;98643.63;;;10.16;78.66
43147;BME280;28752;48.266;7.402;2023-12-14T02:36:50;98645.78;;;10.20;78.72
43147;BME280;28752;48.266;7.402;2023-12-14T02:39:15;98648.44;;;10.20;78.89
43147;BME280;28752;48.266;7.402;2023-12-14T02:41:40;98647.66;;;10.28;78.59
43147;BME280;28752;48.266;7.402;2023-12-14T02:44:05;98653.59;;;10.30;78.56
43147;BME280;28752;48.266;7.402;2023-12-14T02:46:31;98648.78;;;10.25;78.27
43147;BME280;28752;48.266;7.402;2023-12-14T02:48:56;98652.44;;;10.32;77.93
43147;BME280;28752;48.266;7.402;2023-12-14T02:51:22;98651.84;;;10.39;77.68
43147;BME280;28752;48.266;7.402;2023-12-14T02:53:47;98657.94;;;10.39;78.39
43147;BME280;28752;48.266;7.402;2023-12-14T02:56:12;98665.06;;;10.39;78.38
43147;BME280;28752;48.266;7.402;2023-12-14T02:58:38;98667.88;;;10.37;78.48
43147;BME280;28752;48.266;7.402;2023-12-14T03:01:04;98659.53;;;10.32;78.45
43147;BME280;28752;48.266;7.402;2023-12-14T03:03:29;98665.16;;;10.21;79.26
43147;BME280;28752;48.266;7.402;2023-12-14T03:05:55;98668.13;;;10.26;78.69
43147;BME280;28752;48.266;7.402;2023-12-14T03:08:20;98669.66;;;10.37;78.09
43147;BME280;28752;48.266;7.402;2023-12-14T03:10:46;98676.94;;;10.35;77.63
43147;BME280;28752;48.266;7.402;2023-12-14T03:13:11;98680.41;;;10.35;77.61
43147;BME280;28752;48.266;7.402;2023-12-14T03:15:36;98684.72;;;10.36;77.99
43147;BME280;28752;48.266;7.402;2023-12-14T03:18:02;98686.97;;;10.23;78.62
43147;BME280;28752;48.266;7.402;2023-12-14T03:20:29;98687.19;;;10.29;77.91
43147;BME280;28752;48.266;7.402;2023-12-14T03:22:54;98694.78;;;10.32;78.13
43147;BME280;28752;48.266;7.402;2023-12-14T03:25:19;98692.63;;;10.28;78.51
43147;BME280;28752;48.266;7.402;2023-12-14T03:27:45;98697.56;;;10.23;78.07
43147;BME280;28752;48.266;7.402;2023-12-14T03:30:10;98703.91;;;10.38;77.92
43147;BME280;28752;48.266;7.402;2023-12-14T03:32:36;98706.34;;;10.31;78.08
43147;BME280;28752;48.266;7.402;2023-12-14T03:35:01;98704.22;;;10.35;77.84
43147;BME280;28752;48.266;7.402;2023-12-14T03:37:27;98703.22;;;10.28;78.05
43147;BME280;28752;48.266;7.402;2023-12-14T03:39:52;98708.47;;;10.20;78.03
43147;BME280;28752;48.266;7.402;2023-12-14T03:42:17;98710.63;;;10.16;77.93
43147;BME280;28752;48.266;7.402;2023-12-14T03:44:43;98715.59;;;10.19;77.98
43147;BME280;28752;48.266;7.402;2023-12-14T03:47:08;98721.53;;;10.21;77.80
43147;BME280;28752;48.266;7.402;2023-12-14T03:49:37;98717.75;;;10.32;77.34
43147;BME280;28752;48.266;7.402;2023-12-14T03:52:04;98728.91;;;10.36;77.17
43147;BME280;28752;48.266;7.402;2023-12-14T03:54:29;98723.59;;;10.36;77.04
43147;BME280;28752;48.266;7.402;2023-12-14T03:56:54;98737.28;;;10.31;77.49
43147;BME280;28752;48.266;7.402;2023-12-14T03:59:20;98737.16;;;10.41;76.85
43147;BME280;28752;48.266;7.402;2023-12-14T04:01:45;98739.81;;;10.49;76.57
43147;BME280;28752;48.266;7.402;2023-12-14T04:04:10;98749.44;;;10.50;76.75
43147;BME280;28752;48.266;7.402;2023-12-14T04:06:36;98744.78;;;10.52;76.57
43147;BME280;28752;48.266;7.402;2023-12-14T04:09:01;98739.00;;;10.40;77.17
43147;BME280;28752;48.266;7.402;2023-12-14T04:11:27;98754.81;;;10.32;77.89
43147;BME280;28752;48.266;7.402;2023-12-14T04:13:52;98756.50;;;10.33;78.17
43147;BME280;28752;48.266;7.402;2023-12-14T04:16:21;98771.53;;;10.32;78.15
43147;BME280;28752;48.266;7.402;2023-12-14T04:18:48;98781.44;;;10.30;78.23
43147;BME280;28752;48.266;7.402;2023-12-14T04:21:13;98777.66;;;10.33;77.65
43147;BME280;28752;48.266;7.402;2023-12-14T04:23:39;98782.81;;;10.35;77.91
43147;BME280;28752;48.266;7.402;2023-12-14T04:26:04;98787.56;;;10.31;78.08
43147;BME280;28752;48.266;7.402;2023-12-14T04:28:29;98793.38;;;10.35;78.05
43147;BME280;28752;48.266;7.402;2023-12-14T04:30:55;98795.72;;;10.38;78.22
43147;BME280;28752;48.266;7.402;2023-12-14T04:33:20;98794.91;;;10.37;78.84
43147;BME280;28752;48.266;7.402;2023-12-14T04:35:46;98801.19;;;10.44;78.81
43147;BME280;28752;48.266;7.402;2023-12-14T04:38:11;98809.28;;;10.43;79.03
43147;BME280;28752;48.266;7.402;2023-12-14T04:40:36;98809.59;;;10.40;79.13
43147;BME280;28752;48.266;7.402;2023-12-14T04:43:02;98814.06;;;10.39;78.96
43147;BME280;28752;48.266;7.402;2023-12-14T04:45:27;98807.44;;;10.35;79.11
43147;BME280;28752;48.266;7.402;2023-12-14T04:47:53;98816.06;;;10.37;78.99
43147;BME280;28752;48.266;7.402;2023-12-14T04:50:18;98825.97;;;10.35;79.14
43147;BME280;28752;48.266;7.402;2023-12-14T04:52:43;98836.16;;;10.30;79.28
43147;BME280;28752;48.266;7.402;2023-12-14T04:55:09;98834.78;;;10.18;79.37
43147;BME280;28752;48.266;7.402;2023-12-14T04:57:35;98842.75;;;10.26;78.92
43147;BME280;28752;48.266;7.402;2023-12-14T05:00:00;98852.38;;;10.27;78.71
43147;BME280;28752;48.266;7.402;2023-12-14T05:02:25;98853.88;;;10.29;78.40
43147;BME280;28752;48.266;7.402;2023-12-14T05:04:51;98852.69;;;10.24;78.91
43147;BME280;28752;48.266;7.402;2023-12-14T05:07:16;98866.94;;;10.31;78.64
43147;BME280;28752;48.266;7.402;2023-12-14T05:09:41;98873.59;;;10.35;78.51
43147;BME280;28752;48.266;7.402;2023-12-14T05:12:07;98875.91;;;10.38;78.06
43147;BME280;28752;48.266;7.402;2023-12-14T05:14:32;98880.72;;;10.35;77.73
43147;BME280;28752;48.266;7.402;2023-12-14T05:16:57;98884.03;;;10.37;77.96
43147;BME280;28752;48.266;7.402;2023-12-14T05:19:23;98893.56;;;10.29;78.34
43147;BME280;28752;48.266;7.402;2023-12-14T05:21:48;98896.84;;;10.23;79.02
43147;BME280;28752;48.266;7.402;2023-12-14T05:24:14;98902.59;;;10.45;78.25
43147;BME280;28752;48.266;7.402;2023-12-14T05:26:40;98912.81;;;10.40;78.28
43147;BME280;28752;48.266;7.402;2023-12-14T05:29:05;98912.47;;;10.35;78.69
43147;BME280;28752;48.266;7.402;2023-12-14T05:31:30;98914.66;;;10.47;78.25
43147;BME280;28752;48.266;7.402;2023-12-14T05:33:56;98916.41;;;10.65;77.60
43147;BME280;28752;48.266;7.402;2023-12-14T05:36:21;98923.50;;;10.56;77.91
43147;BME280;28752;48.266;7.402;2023-12-14T05:38:46;98924.28;;;10.48;77.99
43147;BME280;28752;48.266;7.402;2023-12-14T05:41:12;98929.31;;;10.60;77.50
43147;BME280;28752;48.266;7.402;2023-12-14T05:43:37;98928.16;;;10.62;77.43
43147;BME280;28752;48.266;7.402;2023-12-14T05:46:02;98937.59;;;10.65;77.43
43147;BME280;28752;48.266;7.402;2023-12-14T05:48:29;98942.88;;;10.57;77.90
43147;BME280;28752;48.266;7.402;2023-12-14T05:50:56;98932.38;;;10.47;77.93
43147;BME280;28752;48.266;7.402;2023-12-14T05:53:21;98939.53;;;10.55;77.57
43147;BME280;28752;48.266;7.402;2023-12-14T05:55:46;98947.22;;;10.40;78.51
43147;BME280;28752;48.266;7.402;2023-12-14T05:58:12;98947.75;;;10.43;78.15
43147;BME280;28752;48.266;7.402;2023-12-14T06:00:37;98960.25;;;10.15;79.13
43147;BME280;28752;48.266;7.402;2023-12-14T06:03:03;98962.75;;;10.35;78.46
43147;BME280;28752;48.266;7.402;2023-12-14T06:05:29;98971.19;;;10.38;77.93
43147;BME280;28752;48.266;7.402;2023-12-14T06:07:54;98974.53;;;10.40;76.68
43147;BME280;28752;48.266;7.402;2023-12-14T06:10:20;98974.88;;;10.45;75.63
43147;BME280;28752;48.266;7.402;2023-12-14T06:12:46;98989.81;;;10.55;75.55
43147;BME280;28752;48.266;7.402;2023-12-14T06:15:11;98996.66;;;10.65;75.07
43147;BME280;28752;48.266;7.402;2023-12-14T06:17:37;99003.13;;;10.63;74.68
43147;BME280;28752;48.266;7.402;2023-12-14T06:20:05;99003.28;;;10.61;74.60
43147;BME280;28752;48.266;7.402;2023-12-14T06:22:33;99010.06;;;10.64;74.49
43147;BME280;28752;48.266;7.402;2023-12-14T06:24:59;99013.94;;;10.78;74.12
43147;BME280;28752;48.266;7.402;2023-12-14T06:27:24;99021.53;;;10.73;73.94
43147;BME280;28752;48.266;7.402;2023-12-14T06:29:52;99026.53;;;10.76;73.94
43147;BME280;28752;48.266;7.402;2023-12-14T06:32:17;99025.56;;;10.85;73.71
43147;BME280;28752;48.266;7.402;2023-12-14T06:34:42;99035.84;;;10.88;73.66
43147;BME280;28752;48.266;7.402;2023-12-14T06:37:08;99039.91;;;10.74;73.99
43147;BME280;28752;48.266;7.402;2023-12-14T06:39:34;99040.69;;;10.66;73.81
43147;BME280;28752;48.266;7.402;2023-12-14T06:42:00;99044.09;;;10.77;73.35
43147;BME280;28752;48.266;7.402;2023-12-14T06:44:26;99042.97;;;10.88;72.80
43147;BME280;28752;48.266;7.402;2023-12-14T06:46:53;99047.09;;;10.56;73.52
43147;BME280;28752;48.266;7.402;2023-12-14T06:49:18;99053.91;;;10.58;73.27
43147;BME280;28752;48.266;7.402;2023-12-14T06:51:43;99058.00;;;10.79;72.47
43147;BME280;28752;48.266;7.402;2023-12-14T06:54:09;99056.94;;;10.72;72.77
43147;BME280;28752;48.266;7.402;2023-12-14T06:56:36;99055.69;;;10.58;73.30
43147;BME280;28752;48.266;7.402;2023-12-14T06:59:02;99058.81;;;10.79;72.39
43147;BME280;28752;48.266;7.402;2023-12-14T07:01:27;99065.78;;;10.54;73.28
43147;BME280;28752;48.266;7.402;2023-12-14T07:03:52;99073.75;;;10.62;73.77
43147;BME280;28752;48.266;7.402;2023-12-14T07:06:18;99083.56;;;10.70;73.66
43147;BME280;28752;48.266;7.402;2023-12-14T07:08:44;99083.06;;;10.66;74.05
43147;BME280;28752;48.266;7.402;2023-12-14T07:11:11;99090.38;;;10.73;74.01
43147;BME280;28752;48.266;7.402;2023-12-14T07:13:37;99085.59;;;10.76;73.69
43147;BME280;28752;48.266;7.402;2023-12-14T07:16:06;99086.19;;;10.62;73.68
43147;BME280;28752;48.266;7.402;2023-12-14T07:18:38;99095.09;;;10.61;73.77
43147;BME280;28752;48.266;7.402;2023-12-14T07:21:04;99105.66;;;10.79;73.56
43147;BME280;28752;48.266;7.402;2023-12-14T07:23:30;99103.31;;;10.76;73.57
43147;BME280;28752;48.266;7.402;2023-12-14T07:25:56;99108.78;;;10.74;73.79
43147;BME280;28752;48.266;7.402;2023-12-14T07:28:21;99115.44;;;10.78;73.59
43147;BME280;28752;48.266;7.402;2023-12-14T07:30:47;99119.63;;;10.63;73.97
43147;BME280;28752;48.266;7.402;2023-12-14T07:33:13;99125.91;;;10.88;73.07
43147;BME280;28752;48.266;7.402;2023-12-14T07:35:38;99128.28;;;10.73;73.87
43147;BME280;28752;48.266;7.402;2023-12-14T07:38:04;99136.31;;;10.81;73.87
43147;BME280;28752;48.266;7.402;2023-12-14T07:40:29;99136.00;;;10.84;73.81
43147;BME280;28752;48.266;7.402;2023-12-14T07:42:54;99135.38;;;10.91;73.69
43147;BME280;28752;48.266;7.402;2023-12-14T07:45:20;99133.72;;;10.72;74.64
43147;BME280;28752;48.266;7.402;2023-12-14T07:47:45;99146.19;;;10.79;74.40
43147;BME280;28752;48.266;7.402;2023-12-14T07:50:11;99155.78;;;10.72;74.55
43147;BME280;28752;48.266;7.402;2023-12-14T07:52:37;99156.94;;;10.78;74.31
43147;BME280;28752;48.266;7.402;2023-12-14T07:55:03;99161.63;;;10.84;74.41
43147;BME280;28752;48.266;7.402;2023-12-14T07:57:31;99169.28;;;10.87;74.44
43147;BME280;28752;48.266;7.402;2023-12-14T07:59:57;99170.97;;;10.70;74.68
43147;BME280;28752;48.266;7.402;2023-12-14T08:02:22;99181.38;;;10.90;74.15
43147;BME280;28752;48.266;7.402;2023-12-14T08:04:48;99183.66;;;10.84;74.35
43147;BME280;28752;48.266;7.402;2023-12-14T08:07:13;99196.22;;;10.82;74.32
43147;BME280;28752;48.266;7.402;2023-12-14T08:09:38;99199.16;;;10.97;73.73
43147;BME280;28752;48.266;7.402;2023-12-14T08:12:04;99205.91;;;10.92;73.71
43147;BME280;28752;48.266;7.402;2023-12-14T08:14:35;99205.22;;;10.90;73.88
43147;BME280;28752;48.266;7.402;2023-12-14T08:17:03;99213.09;;;11.26;72.38
43147;BME280;28752;48.266;7.402;2023-12-14T08:19:29;99210.50;;;11.34;72.03
43147;BME280;28752;48.266;7.402;2023-12-14T08:21:55;99214.09;;;11.25;72.60
43147;BME280;28752;48.266;7.402;2023-12-14T08:24:20;99221.56;;;11.29;72.64
43147;BME280;28752;48.266;7.402;2023-12-14T08:26:45;99228.91;;;11.35;72.36
43147;BME280;28752;48.266;7.402;2023-12-14T08:29:11;99237.47;;;11.29;71.96
43147;BME280;28752;48.266;7.402;2023-12-14T08:31:36;99238.72;;;11.43;71.67
43147;BME280;28752;48.266;7.402;2023-12-14T08:34:01;99248.41;;;11.52;71.29
43147;BME280;28752;48.266;7.402;2023-12-14T08:36:27;99251.25;;;11.59;71.03
43147;BME280;28752;48.266;7.402;2023-12-14T08:38:52;99258.22;;;11.60;71.31
43147;BME280;28752;48.266;7.402;2023-12-14T08:41:18;99258.81;;;11.28;71.17
43147;BME280;28752;48.266;7.402;2023-12-14T08:43:43;99267.44;;;11.48;71.86
43147;BME280;28752;48.266;7.402;2023-12-14T08:46:09;99277.63;;;11.61;71.32
43147;BME280;28752;48.266;7.402;2023-12-14T08:48:35;99276.84;;;11.68;70.92
43147;BME280;28752;48.266;7.402;2023-12-14T08:51:01;99270.00;;;11.40;71.44
43147;BME280;28752;48.266;7.402;2023-12-14T08:53:26;99279.91;;;11.55;71.03
43147;BME280;28752;48.266;7.402;2023-12-14T08:55:52;99288.06;;;11.62;70.91
43147;BME280;28752;48.266;7.402;2023-12-14T08:58:17;99282.97;;;11.69;70.93
43147;BME280;28752;48.266;7.402;2023-12-14T09:00:42;99283.53;;;11.54;70.73
43147;BME280;28752;48.266;7.402;2023-12-14T09:03:08;99286.22;;;11.63;71.17
43147;BME280;28752;48.266;7.402;2023-12-14T09:05:34;99301.63;;;11.85;71.04
43147;BME280;28752;48.266;7.402;2023-12-14T09:08:00;99304.97;;;11.87;71.21
43147;BME280;28752;48.266;7.402;2023-12-14T09:10:25;99307.31;;;11.90;71.22
43147;BME280;28752;48.266;7.402;2023-12-14T09:12:51;99320.56;;;11.90;71.71
43147;BME280;28752;48.266;7.402;2023-12-14T09:15:16;99319.72;;;11.90;71.59
43147;BME280;28752;48.266;7.402;2023-12-14T09:17:41;99318.56;;;11.84;70.99
43147;BME280;28752;48.266;7.402;2023-12-14T09:20:08;99331.28;;;11.54;72.91
43147;BME280;28752;48.266;7.402;2023-12-14T09:22:34;99337.38;;;11.73;71.77
43147;BME280;28752;48.266;7.402;2023-12-14T09:24:59;99348.38;;;12.04;71.18
43147;BME280;28752;48.266;7.402;2023-12-14T09:27:24;99349.66;;;12.00;71.16
43147;BME280;28752;48.266;7.402;2023-12-14T09:29:50;99352.13;;;11.94;71.85
43147;BME280;28752;48.266;7.402;2023-12-14T09:32:15;99358.56;;;12.17;70.96
43147;BME280;28752;48.266;7.402;2023-12-14T09:34:42;99356.28;;;11.96;70.79
43147;BME280;28752;48.266;7.402;2023-12-14T09:37:08;99362.38;;;11.70;72.00
43147;BME280;28752;48.266;7.402;2023-12-14T09:39:33;99367.97;;;11.67;71.87
43147;BME280;28752;48.266;7.402;2023-12-14T09:42:06;99378.09;;;11.46;73.70
43147;BME280;28752;48.266;7.402;2023-12-14T09:44:35;99380.53;;;11.57;73.31
43147;BME280;28752;48.266;7.402;2023-12-14T09:47:01;99379.81;;;11.73;73.19
43147;BME280;28752;48.266;7.402;2023-12-14T09:49:27;99389.03;;;11.69;73.33
43147;BME280;28752;48.266;7.402;2023-12-14T09:51:56;99385.09;;;11.73;73.45
43147;BME280;28752;48.266;7.402;2023-12-14T09:54:22;99392.09;;;11.74;73.61
43147;BME280;28752;48.266;7.402;2023-12-14T09:56:48;99395.09;;;11.79;73.05
43147;BME280;28752;48.266;7.402;2023-12-14T09:59:14;99395.19;;;11.69;72.82
43147;BME280;28752;48.266;7.402;2023-12-14T10:01:40;99402.38;;;11.77;72.68
43147;BME280;28752;48.266;7.402;2023-12-14T10:04:14;99409.25;;;11.88;72.53
43147;BME280;28752;48.266;7.402;2023-12-14T10:06:41;99402.81;;;11.90;71.62
43147;BME280;28752;48.266;7.402;2023-12-14T10:09:07;99413.31;;;12.18;70.63
43147;BME280;28752;48.266;7.402;2023-12-14T10:11:38;99415.94;;;12.10;70.79
43147;BME280;28752;48.266;7.402;2023-12-14T10:14:17;99420.50;;;12.26;70.38
43147;BME280;28752;48.266;7.402;2023-12-14T10:16:43;99419.81;;;12.24;70.46
43147;BME280;28752;48.266;7.402;2023-12-14T10:19:08;99412.16;;;12.21;70.38
43147;BME280;28752;48.266;7.402;2023-12-14T10:21:34;99417.63;;;12.46;69.35
43147;BME280;28752;48.266;7.402;2023-12-14T10:24:00;99432.59;;;12.55;69.35
43147;BME280;28752;48.266;7.402;2023-12-14T10:26:25;99443.56;;;12.60;68.56
43147;BME280;28752;48.266;7.402;2023-12-14T10:28:51;99437.09;;;12.54;68.74
43147;BME280;28752;48.266;7.402;2023-12-14T10:31:18;99449.97;;;12.75;67.64
43147;BME280;28752;48.266;7.402;2023-12-14T10:33:45;99448.63;;;12.71;67.63
43147;BME280;28752;48.266;7.402;2023-12-14T10:36:13;99458.34;;;12.54;68.06
43147;BME280;28752;48.266;7.402;2023-12-14T10:38:38;99455.69;;;12.54;68.39
43147;BME280;28752;48.266;7.402;2023-12-14T10:41:04;99460.13;;;12.88;67.36
43147;BME280;28752;48.266;7.402;2023-12-14T10:43:30;99464.78;;;12.86;67.32
43147;BME280;28752;48.266;7.402;2023-12-14T10:45:57;99473.09;;;12.91;67.25
43147;BME280;28752;48.266;7.402;2023-12-14T10:48:24;99482.94;;;12.99;66.22
43147;BME280;28752;48.266;7.402;2023-12-14T10:50:49;99477.13;;;12.69;66.63
43147;BME280;28752;48.266;7.402;2023-12-14T10:53:16;99482.94;;;12.65;67.61
43147;BME280;28752;48.266;7.402;2023-12-14T10:55:44;99479.41;;;12.56;68.31
43147;BME280;28752;48.266;7.402;2023-12-14T10:58:10;99487.31;;;12.48;68.88
43147;BME280;28752;48.266;7.402;2023-12-14T11:00:37;99490.28;;;12.44;68.32
43147;BME280;28752;48.266;7.402;2023-12-14T11:03:04;99492.38;;;12.33;67.85
43147;BME280;28752;48.266;7.402;2023-12-14T11:05:33;99499.56;;;12.40;68.84
43147;BME280;28752;48.266;7.402;2023-12-14T11:08:03;99488.78;;;12.68;68.47
43147;BME280;28752;48.266;7.402;2023-12-14T11:10:42;99496.53;;;12.88;68.26
43147;BME280;28752;48.266;7.402;2023-12-14T11:13:13;99493.84;;;12.88;66.17
43147;BME280;28752;48.266;7.402;2023-12-14T11:15:40;99492.81;;;13.15;65.90
43147;BME280;28752;48.266;7.402;2023-12-14T11:23:12;99511.84;;;13.45;64.13
43147;BME280;28752;48.266;7.402;2023-12-14T11:25:40;99508.06;;;13.56;63.38
43147;BME280;28752;48.266;7.402;2023-12-14T11:28:07;99512.72;;;13.45;64.67
43147;BME280;28752;48.266;7.402;2023-12-14T11:30:33;99511.69;;;13.46;64.00
43147;BME280;28752;48.266;7.402;2023-12-14T11:33:00;99523.84;;;13.41;64.34
43147;BME280;28752;48.266;7.402;2023-12-14T11:35:25;99522.03;;;13.58;63.94
43147;BME280;28752;48.266;7.402;2023-12-14T11:37:50;99523.50;;;13.44;63.40
43147;BME280;28752;48.266;7.402;2023-12-14T11:40:16;99530.28;;;13.38;63.83
43147;BME280;28752;48.266;7.402;2023-12-14T11:43:00;99540.19;;;13.28;63.68
43147;BME280;28752;48.266;7.402;2023-12-14T11:45:26;99535.94;;;13.43;62.15
43147;BME280;28752;48.266;7.402;2023-12-14T11:47:52;99538.16;;;13.56;62.61
43147;BME280;28752;48.266;7.402;2023-12-14T11:50:18;99536.47;;;13.47;63.10
43147;BME280;28752;48.266;7.402;2023-12-14T11:52:44;99542.13;;;13.52;62.76
43147;BME280;28752;48.266;7.402;2023-12-14T11:55:13;99542.47;;;13.49;62.44
43147;BME280;28752;48.266;7.402;2023-12-14T11:57:39;99543.34;;;13.23;63.23
43147;BME280;28752;48.266;7.402;2023-12-14T12:00:08;99539.94;;;13.39;63.05
43147;BME280;28752;48.266;7.402;2023-12-14T12:02:34;99546.25;;;13.46;63.10
43147;BME280;28752;48.266;7.402;2023-12-14T12:05:00;99553.75;;;13.43;62.86
43147;BME280;28752;48.266;7.402;2023-12-14T12:07:25;99557.22;;;13.35;63.44
43147;BME280;28752;48.266;7.402;2023-12-14T12:09:51;99561.47;;;13.28;63.52
43147;BME280;28752;48.266;7.402;2023-12-14T12:12:17;99560.13;;;13.24;63.46
43147;BME280;28752;48.266;7.402;2023-12-14T12:14:42;99557.81;;;13.29;63.34
43147;BME280;28752;48.266;7.402;2023-12-14T12:17:08;99554.47;;;13.19;62.47
43147;BME280;28752;48.266;7.402;2023-12-14T12:19:34;99555.59;;;13.42;63.70
43147;BME280;28752;48.266;7.402;2023-12-14T12:22:00;99556.06;;;13.38;61.71
43147;BME280;28752;48.266;7.402;2023-12-14T12:24:26;99560.59;;;13.54;62.22
43147;BME280;28752;48.266;7.402;2023-12-14T12:26:51;99562.06;;;13.48;62.12
43147;BME280;28752;48.266;7.402;2023-12-14T12:29:17;99555.50;;;13.26;62.20
43147;BME280;28752;48.266;7.402;2023-12-14T12:31:42;99558.81;;;13.28;60.91
43147;BME280;28752;48.266;7.402;2023-12-14T12:34:08;99554.28;;;13.20;61.75
43147;BME280;28752;48.266;7.402;2023-12-14T12:36:33;99558.56;;;13.39;61.75
43147;BME280;28752;48.266;7.402;2023-12-14T12:38:59;99574.38;;;13.49;59.97
43147;BME280;28752;48.266;7.402;2023-12-14T12:41:24;99576.72;;;13.52;60.10
43147;BME280;28752;48.266;7.402;2023-12-14T12:43:49;99567.59;;;13.20;60.50
43147;BME280;28752;48.266;7.402;2023-12-14T12:46:15;99579.38;;;13.44;60.88
43147;BME280;28752;48.266;7.402;2023-12-14T12:48:40;99579.59;;;13.32;61.45
43147;BME280;28752;48.266;7.402;2023-12-14T12:51:06;99578.94;;;13.30;62.29
43147;BME280;28752;48.266;7.402;2023-12-14T12:53:31;99579.16;;;13.37;60.88
43147;BME280;28752;48.266;7.402;2023-12-14T12:55:58;99575.88;;;13.17;61.93
43147;BME280;28752;48.266;7.402;2023-12-14T12:58:23;99585.34;;;13.54;61.63
43147;BME280;28752;48.266;7.402;2023-12-14T13:00:49;99587.66;;;13.41;61.84